Time;durP1;ratioP1;P1;durP2;ratioP2;P2;SDS_P1;SDS_P2;PMS_P1;PMS_P2;Temp;Humidity;BMP_temperature;BMP_pressure;BME280_temperature;BME280_humidity;BME280_pressure;Samples;Min_cycle;Max_cycle;Signal;HPM_P1;HPM_P2
2023/08/06 00:00:22;;;;;;;13.27;11.40;;;14.10;99.90;;;;;;5069277;28;20135;-69
2023/08/06 00:02:47;;;;;;;14.55;10.63;;;14.10;99.90;;;;;;5069423;28;20079;-68
2023/08/06 00:05:13;;;;;;;15.23;10.82;;;14.20;99.90;;;;;;5069752;28;20072;-69
2023/08/06 00:07:39;;;;;;;16.55;9.80;;;14.10;99.90;;;;;;5069632;28;20055;-69
2023/08/06 00:10:05;;;;;;;16.25;9.35;;;14.10;99.90;;;;;;5069479;28;20045;-68
2023/08/06 00:12:30;;;;;;;13.45;9.45;;;14.10;99.90;;;;;;5069563;28;20097;-68
2023/08/06 00:14:56;;;;;;;14.68;9.80;;;14.10;99.90;;;;;;5068252;28;20044;-70
2023/08/06 00:17:22;;;;;;;13.50;9.30;;;14.20;99.90;;;;;;5067866;28;20055;-68
2023/08/06 00:19:47;;;;;;;12.30;9.35;;;14.10;99.90;;;;;;5069205;28;20499;-69
2023/08/06 00:22:13;;;;;;;14.00;10.43;;;14.00;99.90;;;;;;5071027;28;20531;-69
2023/08/06 00:24:39;;;;;;;12.63;10.27;;;14.10;99.90;;;;;;5073590;28;20085;-69
2023/08/06 00:27:05;;;;;;;15.13;10.73;;;14.10;99.90;;;;;;5073598;28;20064;-69
2023/08/06 00:29:30;;;;;;;17.40;10.48;;;14.10;99.90;;;;;;5073759;28;20055;-68
2023/08/06 00:31:56;;;;;;;14.07;10.02;;;14.20;99.90;;;;;;5073613;28;20445;-69
2023/08/06 00:34:21;;;;;;;12.68;10.55;;;14.10;99.90;;;;;;5073050;28;20048;-68
2023/08/06 00:36:47;;;;;;;14.65;11.48;;;14.10;99.90;;;;;;5072124;28;20053;-69
2023/08/06 00:39:13;;;;;;;14.88;11.60;;;14.10;99.90;;;;;;5073416;28;20033;-68
2023/08/06 00:41:39;;;;;;;16.42;11.93;;;14.10;99.90;;;;;;5073140;28;20109;-68
2023/08/06 00:44:04;;;;;;;16.83;11.82;;;14.20;99.90;;;;;;5073356;28;20105;-68
2023/08/06 00:46:32;;;;;;;15.38;11.13;;;14.10;99.90;;;;;;5071846;28;20051;-68
2023/08/06 00:48:58;;;;;;;17.48;11.80;;;14.20;99.90;;;;;;5064584;28;20253;-68
2023/08/06 00:51:25;;;;;;;15.80;11.02;;;14.20;99.90;;;;;;5073050;28;20148;-68
2023/08/06 00:53:52;;;;;;;18.02;12.77;;;14.20;99.90;;;;;;5072859;28;20051;-69
2023/08/06 00:56:17;;;;;;;16.50;11.90;;;14.20;99.90;;;;;;5072970;28;20044;-68
2023/08/06 00:58:44;;;;;;;12.82;10.90;;;14.10;99.90;;;;;;5072803;28;20041;-69
2023/08/06 01:01:09;;;;;;;14.95;11.02;;;14.10;99.90;;;;;;5068587;28;20056;-69
2023/08/06 01:03:35;;;;;;;16.02;12.30;;;14.20;99.90;;;;;;5072980;28;20053;-68
2023/08/06 01:06:01;;;;;;;16.50;11.10;;;14.10;99.90;;;;;;5072269;28;20148;-68
2023/08/06 01:08:52;;;;;;;17.70;10.98;;;14.10;99.90;;;;;;5072724;28;20044;-68
2023/08/06 01:11:54;;;;;;;14.57;11.05;;;14.10;99.90;;;;;;5072429;28;20483;-70
2023/08/06 01:14:30;;;;;;;16.77;10.82;;;14.10;99.90;;;;;;5072592;28;20055;-69
2023/08/06 01:16:58;;;;;;;12.65;10.23;;;14.10;99.90;;;;;;5072355;28;20066;-69
2023/08/06 01:19:24;;;;;;;13.52;10.25;;;14.10;99.90;;;;;;5072485;28;20044;-69
2023/08/06 01:21:49;;;;;;;14.60;10.30;;;14.10;99.90;;;;;;5072092;28;20055;-69
2023/08/06 01:24:15;;;;;;;14.20;9.75;;;14.10;99.90;;;;;;5054128;28;20060;-68
2023/08/06 01:27:04;;;;;;;12.90;9.82;;;14.10;99.90;;;;;;5072644;28;20149;-70
2023/08/06 01:29:41;;;;;;;12.35;9.00;;;14.10;99.90;;;;;;5072150;28;20048;-68
2023/08/06 01:32:10;;;;;;;14.85;9.55;;;14.00;99.90;;;;;;5072172;28;20466;-69
2023/08/06 01:34:38;;;;;;;15.48;9.93;;;14.10;99.90;;;;;;5071069;28;20080;-68
2023/08/06 01:37:05;;;;;;;14.25;9.63;;;14.10;99.90;;;;;;5072140;28;20115;-69
2023/08/06 01:39:33;;;;;;;11.10;8.63;;;14.10;99.90;;;;;;5071288;28;20048;-69
2023/08/06 01:41:59;;;;;;;12.25;8.52;;;14.10;99.90;;;;;;5072305;28;20111;-69
2023/08/06 01:44:24;;;;;;;14.30;8.88;;;14.10;99.90;;;;;;5071642;28;20903;-68
2023/08/06 01:46:50;;;;;;;13.10;8.98;;;14.10;99.90;;;;;;5071715;28;20070;-68
2023/08/06 01:49:15;;;;;;;12.85;8.90;;;14.10;99.90;;;;;;5072127;28;20097;-69
2023/08/06 01:51:41;;;;;;;16.15;8.60;;;14.10;99.90;;;;;;5070332;28;20040;-69
2023/08/06 01:54:07;;;;;;;12.73;9.07;;;14.10;99.90;;;;;;5071885;28;20079;-69
2023/08/06 01:56:32;;;;;;;11.90;8.82;;;14.00;99.90;;;;;;5071980;28;20170;-68
2023/08/06 01:58:58;;;;;;;14.20;9.20;;;14.00;99.90;;;;;;5071340;28;20457;-68
2023/08/06 02:01:24;;;;;;;15.48;10.82;;;14.10;99.90;;;;;;5071355;28;20052;-68
2023/08/06 02:03:49;;;;;;;13.43;10.02;;;14.10;99.90;;;;;;5071133;28;20037;-69
2023/08/06 02:06:15;;;;;;;14.45;10.48;;;14.00;99.90;;;;;;5071589;28;20045;-69
2023/08/06 02:08:40;;;;;;;12.05;8.95;;;14.00;99.90;;;;;;5071509;28;20040;-68
2023/08/06 02:11:06;;;;;;;12.88;10.02;;;14.10;99.90;;;;;;5071946;28;20056;-68
2023/08/06 02:13:32;;;;;;;12.30;10.10;;;14.10;99.90;;;;;;5071062;28;20041;-68
2023/08/06 02:15:57;;;;;;;17.55;11.32;;;14.10;99.90;;;;;;5069557;28;20653;-68
2023/08/06 02:18:23;;;;;;;14.07;11.75;;;14.00;99.90;;;;;;5071207;28;20047;-68
2023/08/06 02:20:58;;;;;;;18.48;11.57;;;14.10;99.90;;;;;;5071347;28;20052;-69
2023/08/06 02:23:25;;;;;;;16.10;11.20;;;14.00;99.90;;;;;;5071057;28;20060;-69
2023/08/06 02:26:17;;;;;;;13.75;11.23;;;14.10;99.90;;;;;;5071345;28;20048;-69
2023/08/06 02:28:42;;;;;;;13.77;11.80;;;14.00;99.90;;;;;;5062392;28;20069;-68
2023/08/06 02:31:08;;;;;;;15.55;10.77;;;14.00;99.90;;;;;;5069883;28;20140;-70
2023/08/06 02:33:34;;;;;;;17.83;12.82;;;14.00;99.90;;;;;;5070948;28;20048;-67
2023/08/06 02:36:04;;;;;;;16.83;12.07;;;14.00;99.90;;;;;;5069839;28;20044;-69
2023/08/06 02:38:30;;;;;;;20.08;13.30;;;14.00;99.90;;;;;;5069679;28;20484;-69
2023/08/06 02:40:56;;;;;;;16.73;11.98;;;14.00;99.90;;;;;;5070873;28;20045;-68
2023/08/06 02:43:22;;;;;;;17.77;13.20;;;14.10;99.90;;;;;;5071416;28;20032;-69
2023/08/06 02:45:47;;;;;;;15.30;12.40;;;14.10;99.90;;;;;;5069855;28;20193;-68
2023/08/06 02:48:13;;;;;;;13.70;11.25;;;14.20;99.90;;;;;;5070837;28;20049;-68
2023/08/06 02:50:42;;;;;;;14.60;11.88;;;14.10;99.90;;;;;;5069506;28;20049;-68
2023/08/06 02:53:08;;;;;;;15.65;11.98;;;14.10;99.90;;;;;;5068844;28;20045;-68
2023/08/06 02:55:35;;;;;;;15.80;11.80;;;14.10;99.90;;;;;;5070503;28;20264;-69
2023/08/06 02:58:03;;;;;;;16.00;12.90;;;14.00;99.90;;;;;;5070551;28;20995;-68
2023/08/06 03:00:29;;;;;;;15.77;12.15;;;14.10;99.90;;;;;;5069952;28;20170;-68
2023/08/06 03:02:55;;;;;;;18.42;13.32;;;14.00;99.90;;;;;;5070518;28;20865;-68
2023/08/06 03:05:20;;;;;;;15.85;11.65;;;13.80;99.90;;;;;;5071187;28;20119;-68
2023/08/06 03:07:46;;;;;;;17.45;13.07;;;14.00;99.90;;;;;;5070707;28;20084;-68
2023/08/06 03:10:13;;;;;;;15.93;12.45;;;14.00;99.90;;;;;;5069899;28;20155;-69
2023/08/06 03:12:38;;;;;;;14.45;11.88;;;14.10;99.90;;;;;;5070203;28;20503;-69
2023/08/06 03:15:04;;;;;;;21.85;12.95;;;14.00;99.90;;;;;;5070183;28;20055;-69
2023/08/06 03:17:30;;;;;;;15.63;12.35;;;14.10;99.90;;;;;;5070456;28;20036;-68
2023/08/06 03:19:56;;;;;;;17.00;11.52;;;14.10;99.90;;;;;;5070378;28;20662;-69
2023/08/06 03:22:21;;;;;;;17.08;11.68;;;14.00;99.90;;;;;;5069783;28;20426;-68
2023/08/06 03:24:51;;;;;;;16.20;11.70;;;14.10;99.90;;;;;;5069889;28;20041;-68
2023/08/06 03:27:16;;;;;;;13.40;10.98;;;14.10;99.90;;;;;;5070314;28;20079;-68
2023/08/06 03:29:42;;;;;;;18.58;12.18;;;14.10;99.90;;;;;;5070140;28;20099;-68
2023/08/06 03:32:08;;;;;;;14.38;11.85;;;14.10;99.90;;;;;;5070031;28;20047;-69
2023/08/06 03:34:33;;;;;;;14.73;11.35;;;14.10;99.90;;;;;;5069806;28;20041;-68
2023/08/06 03:36:59;;;;;;;15.82;12.10;;;14.10;99.90;;;;;;5069783;28;20080;-68
2023/08/06 03:39:24;;;;;;;16.70;12.13;;;14.10;99.90;;;;;;5069653;28;20040;-68
2023/08/06 03:41:50;;;;;;;15.30;10.52;;;14.10;99.90;;;;;;5070210;28;20044;-68
2023/08/06 03:44:15;;;;;;;16.52;11.50;;;14.10;99.90;;;;;;5069642;28;20052;-68
2023/08/06 03:46:41;;;;;;;17.83;12.57;;;14.10;99.90;;;;;;5069791;28;20037;-68
2023/08/06 03:49:07;;;;;;;16.48;11.75;;;14.10;99.90;;;;;;5070094;28;20036;-67
2023/08/06 03:51:32;;;;;;;13.52;10.95;;;14.10;99.90;;;;;;5069841;28;20036;-68
2023/08/06 03:53:58;;;;;;;14.23;11.20;;;14.10;99.90;;;;;;5069559;28;20457;-68
2023/08/06 03:56:23;;;;;;;17.48;11.32;;;14.20;99.90;;;;;;5068701;28;20079;-68
2023/08/06 03:58:49;;;;;;;14.20;10.88;;;14.10;99.90;;;;;;5068305;28;20139;-68
2023/08/06 04:01:15;;;;;;;15.77;11.05;;;14.10;99.90;;;;;;5069220;28;20052;-68
2023/08/06 04:03:40;;;;;;;13.63;10.55;;;14.10;99.90;;;;;;5069553;28;20040;-67
2023/08/06 04:06:07;;;;;;;18.58;12.18;;;14.20;99.90;;;;;;5069584;28;20094;-68
2023/08/06 04:08:32;;;;;;;17.80;12.23;;;14.20;99.90;;;;;;5069690;28;20036;-68
2023/08/06 04:10:58;;;;;;;18.92;12.32;;;14.10;99.90;;;;;;5069333;28;20045;-68
2023/08/06 04:13:23;;;;;;;16.17;12.32;;;14.10;99.90;;;;;;5069015;28;20607;-68
2023/08/06 04:15:49;;;;;;;18.10;11.77;;;14.00;99.90;;;;;;5069094;28;20095;-68
2023/08/06 04:18:16;;;;;;;17.98;13.10;;;14.20;99.90;;;;;;5069345;28;20032;-68
2023/08/06 04:20:49;;;;;;;15.05;11.45;;;14.10;99.90;;;;;;5069334;28;20045;-69
2023/08/06 04:23:15;;;;;;;14.55;11.27;;;14.10;99.90;;;;;;5068429;28;20060;-68
2023/08/06 04:25:41;;;;;;;13.55;11.80;;;14.20;99.90;;;;;;5069263;28;20119;-68
2023/08/06 04:28:07;;;;;;;16.42;12.07;;;14.10;99.90;;;;;;5069398;28;20070;-68
2023/08/06 04:30:33;;;;;;;12.27;10.55;;;14.20;99.90;;;;;;5069113;28;20048;-68
2023/08/06 04:32:58;;;;;;;14.75;11.00;;;14.20;99.90;;;;;;5068781;28;20041;-68
2023/08/06 04:35:24;;;;;;;14.10;12.00;;;14.20;99.90;;;;;;5069330;28;20056;-68
2023/08/06 04:37:50;;;;;;;16.42;12.95;;;14.20;99.90;;;;;;5069560;28;20047;-68
2023/08/06 04:40:15;;;;;;;18.35;11.98;;;14.20;99.90;;;;;;5069336;28;20055;-68
2023/08/06 04:42:41;;;;;;;19.17;12.35;;;14.20;99.90;;;;;;5084524;28;20044;-68
2023/08/06 04:45:07;;;;;;;17.48;11.73;;;14.20;99.90;;;;;;5067615;28;20041;-69
2023/08/06 04:47:33;;;;;;;17.08;12.50;;;14.20;99.90;;;;;;5068847;28;20041;-68
2023/08/06 04:49:58;;;;;;;14.38;11.30;;;14.30;99.90;;;;;;5067806;28;20032;-68
2023/08/06 04:52:27;;;;;;;16.38;12.65;;;14.20;99.90;;;;;;5069575;28;20135;-69
2023/08/06 04:54:53;;;;;;;14.30;11.70;;;14.30;99.90;;;;;;5069436;28;20056;-68
2023/08/06 04:57:19;;;;;;;14.90;11.85;;;14.30;99.90;;;;;;5067858;28;20455;-68
2023/08/06 04:59:45;;;;;;;16.77;12.10;;;14.30;99.90;;;;;;5069207;28;20075;-68
2023/08/06 05:02:11;;;;;;;13.05;10.65;;;14.40;99.90;;;;;;5069336;28;20036;-67
2023/08/06 05:04:37;;;;;;;20.67;12.15;;;14.40;99.90;;;;;;5069500;28;20127;-68
2023/08/06 05:07:03;;;;;;;15.55;10.95;;;14.40;99.90;;;;;;5069546;28;20068;-68
2023/08/06 05:09:28;;;;;;;17.13;11.18;;;14.40;99.90;;;;;;5072628;28;20068;-68
2023/08/06 05:11:54;;;;;;;14.45;11.52;;;14.50;99.90;;;;;;5072887;28;20135;-67
2023/08/06 05:14:19;;;;;;;14.75;10.13;;;14.50;99.90;;;;;;5072656;28;20119;-69
2023/08/06 05:16:45;;;;;;;13.63;10.68;;;14.60;99.90;;;;;;5071775;28;20467;-68
2023/08/06 05:19:11;;;;;;;15.88;11.60;;;14.60;99.90;;;;;;5072615;28;20053;-67
2023/08/06 05:21:36;;;;;;;14.35;10.50;;;14.80;99.90;;;;;;5072974;28;20086;-68
2023/08/06 05:24:02;;;;;;;15.68;9.68;;;14.80;99.90;;;;;;5072514;28;20117;-68
2023/08/06 05:26:28;;;;;;;11.93;9.38;;;14.80;99.90;;;;;;5071298;28;20101;-69
2023/08/06 05:28:53;;;;;;;15.15;9.55;;;14.80;99.90;;;;;;5071868;28;20509;-68
2023/08/06 05:31:19;;;;;;;13.85;9.98;;;14.80;99.90;;;;;;5072176;28;20048;-69
2023/08/06 05:33:44;;;;;;;14.35;10.70;;;14.90;99.90;;;;;;5072332;28;20049;-68
2023/08/06 05:36:10;;;;;;;11.90;9.95;;;14.90;99.90;;;;;;5072557;28;20080;-68
2023/08/06 05:38:35;;;;;;;14.00;9.68;;;14.90;99.90;;;;;;5072317;28;20049;-67
2023/08/06 05:41:01;;;;;;;14.02;9.85;;;14.90;99.90;;;;;;5072224;28;20399;-67
2023/08/06 05:43:27;;;;;;;16.88;10.38;;;14.90;99.90;;;;;;5071627;28;20036;-67
2023/08/06 05:45:52;;;;;;;12.43;9.38;;;14.90;99.90;;;;;;5071690;28;20111;-68
2023/08/06 05:48:18;;;;;;;13.13;9.70;;;15.00;99.90;;;;;;5072037;28;20086;-68
2023/08/06 05:50:44;;;;;;;13.85;10.00;;;15.00;99.90;;;;;;5072107;28;20055;-68
2023/08/06 05:53:09;;;;;;;11.80;9.65;;;15.00;99.90;;;;;;5071062;28;20040;-68
2023/08/06 05:55:35;;;;;;;12.88;9.05;;;15.10;99.90;;;;;;5070622;28;20048;-69
2023/08/06 05:58:01;;;;;;;13.80;8.90;;;15.20;99.90;;;;;;5063404;28;20043;-68
2023/08/06 06:00:26;;;;;;;11.88;9.02;;;15.10;99.90;;;;;;5071172;28;20048;-69
2023/08/06 06:02:52;;;;;;;10.73;8.27;;;15.20;99.90;;;;;;5071581;28;20500;-68
2023/08/06 06:05:18;;;;;;;9.70;8.02;;;15.10;99.90;;;;;;5071704;28;20040;-69
2023/08/06 06:07:43;;;;;;;11.73;8.57;;;15.20;99.90;;;;;;5071864;28;20052;-68
2023/08/06 06:10:09;;;;;;;12.98;8.90;;;15.20;99.90;;;;;;5071519;28;20525;-68
2023/08/06 06:12:35;;;;;;;11.13;8.52;;;15.30;99.90;;;;;;5071479;28;20044;-68
2023/08/06 06:15:01;;;;;;;11.38;9.18;;;15.20;99.90;;;;;;5070554;28;20257;-68
2023/08/06 06:17:27;;;;;;;10.77;8.32;;;15.40;99.90;;;;;;5071509;28;20098;-68
2023/08/06 06:19:53;;;;;;;10.45;8.55;;;15.30;99.90;;;;;;5070795;28;20072;-68
2023/08/06 06:22:18;;;;;;;13.38;9.02;;;15.30;99.90;;;;;;5070207;28;20052;-68
2023/08/06 06:24:44;;;;;;;11.52;8.75;;;15.30;99.90;;;;;;5071565;28;20487;-69
2023/08/06 06:27:10;;;;;;;15.13;10.02;;;15.40;99.90;;;;;;5071160;28;20044;-68
2023/08/06 06:29:35;;;;;;;14.20;8.98;;;15.40;99.90;;;;;;5069409;28;20116;-68
2023/08/06 06:32:01;;;;;;;11.18;8.75;;;15.50;99.90;;;;;;5071291;28;20040;-68
2023/08/06 06:34:26;;;;;;;11.95;9.30;;;15.50;99.90;;;;;;5069841;28;20040;-69
2023/08/06 06:36:52;;;;;;;9.10;8.15;;;15.60;99.90;;;;;;5071009;28;20052;-69
2023/08/06 06:39:18;;;;;;;10.73;8.50;;;15.60;99.90;;;;;;5071201;28;20048;-68
2023/08/06 06:41:44;;;;;;;10.73;7.70;;;15.80;99.90;;;;;;5071056;28;20098;-68
2023/08/06 06:44:09;;;;;;;12.48;8.13;;;15.80;99.90;;;;;;5070694;28;20398;-69
2023/08/06 06:46:35;;;;;;;13.57;8.45;;;15.80;99.90;;;;;;5070317;28;20076;-69
2023/08/06 06:49:01;;;;;;;10.63;7.75;;;15.80;99.90;;;;;;5071070;28;20123;-68
2023/08/06 06:51:26;;;;;;;12.35;7.80;;;15.90;99.90;;;;;;5069332;28;20044;-70
2023/08/06 06:53:52;;;;;;;9.57;7.63;;;15.90;99.90;;;;;;5070553;28;20142;-70
2023/08/06 06:56:17;;;;;;;13.30;8.40;;;16.00;99.90;;;;;;5070864;28;20044;-69
2023/08/06 06:58:43;;;;;;;10.95;8.35;;;16.00;99.90;;;;;;5070390;28;20041;-70
2023/08/06 07:01:11;;;;;;;10.85;7.97;;;16.00;99.90;;;;;;5070008;28;20403;-69
2023/08/06 07:03:37;;;;;;;10.57;7.90;;;16.10;99.90;;;;;;5070443;28;20074;-69
2023/08/06 07:06:03;;;;;;;10.27;7.80;;;16.10;99.90;;;;;;5070409;28;20040;-69
2023/08/06 07:08:29;;;;;;;8.38;6.82;;;16.20;99.90;;;;;;5070586;28;20046;-69
2023/08/06 07:11:05;;;;;;;9.10;7.35;;;16.30;99.90;;;;;;5070515;28;20405;-69
2023/08/06 07:13:32;;;;;;;11.70;7.72;;;16.30;99.90;;;;;;5070617;28;20044;-68
2023/08/06 07:15:58;;;;;;;8.23;7.10;;;16.30;99.90;;;;;;5069976;28;20109;-69
2023/08/06 07:18:24;;;;;;;9.38;7.35;;;16.40;99.90;;;;;;5070515;28;20471;-69
2023/08/06 07:20:51;;;;;;;9.00;7.47;;;16.50;99.90;;;;;;5070626;28;20127;-68
2023/08/06 07:23:17;;;;;;;11.70;7.47;;;16.60;99.90;;;;;;5070534;28;20036;-68
2023/08/06 07:25:42;;;;;;;8.57;6.72;;;16.70;99.90;;;;;;5069961;28;20485;-69
2023/08/06 07:28:09;;;;;;;9.68;6.72;;;16.70;99.90;;;;;;5070112;28;20175;-70
2023/08/06 07:30:38;;;;;;;11.68;6.68;;;16.80;99.90;;;;;;5070238;28;20055;-69
2023/08/06 07:33:04;;;;;;;8.13;6.35;;;16.90;99.90;;;;;;5067970;28;20101;-68
2023/08/06 07:35:30;;;;;;;8.27;5.95;;;16.90;99.90;;;;;;5068489;28;20065;-68
2023/08/06 07:37:55;;;;;;;7.70;6.60;;;17.10;99.90;;;;;;5069933;28;20082;-69
2023/08/06 07:40:21;;;;;;;10.70;6.32;;;17.10;99.90;;;;;;5070112;28;20036;-71
2023/08/06 07:42:47;;;;;;;8.48;6.00;;;17.30;99.90;;;;;;5069932;28;20483;-73
2023/08/06 07:45:12;;;;;;;8.45;5.60;;;17.30;99.90;;;;;;5070849;28;20471;-67
2023/08/06 07:47:38;;;;;;;8.65;6.10;;;17.40;99.90;;;;;;5069480;28;20102;-71
2023/08/06 07:50:04;;;;;;;6.75;6.00;;;17.60;99.90;;;;;;5070158;28;20032;-70
2023/08/06 07:52:29;;;;;;;7.45;5.63;;;17.90;99.90;;;;;;5069570;28;20036;-70
2023/08/06 07:54:55;;;;;;;6.50;5.45;;;18.10;99.90;;;;;;5069524;28;20050;-70
2023/08/06 07:57:21;;;;;;;8.45;5.72;;;18.30;99.90;;;;;;5070306;28;20119;-69
2023/08/06 07:59:46;;;;;;;7.78;5.32;;;18.40;99.90;;;;;;5069598;28;20064;-69
2023/08/06 08:02:12;;;;;;;6.82;4.80;;;18.60;99.90;;;;;;5069775;28;20041;-69
2023/08/06 08:04:37;;;;;;;7.05;5.20;;;18.60;99.90;;;;;;5068379;28;20119;-70
2023/08/06 08:07:04;;;;;;;8.82;4.97;;;18.80;99.90;;;;;;5069571;28;20478;-71
2023/08/06 08:09:29;;;;;;;7.15;4.75;;;18.90;99.90;;;;;;5069955;28;20028;-70
2023/08/06 08:11:55;;;;;;;6.35;4.55;;;19.00;99.90;;;;;;5069659;28;20048;-71
2023/08/06 08:14:20;;;;;;;6.15;4.53;;;19.10;99.90;;;;;;5069921;28;20484;-72
2023/08/06 08:16:46;;;;;;;5.25;3.65;;;19.20;99.90;;;;;;5069704;28;20044;-70
2023/08/06 08:19:12;;;;;;;5.32;3.85;;;19.30;99.90;;;;;;5068221;28;20055;-69
2023/08/06 08:21:37;;;;;;;7.65;4.22;;;19.50;99.90;;;;;;5069576;28;20062;-70
2023/08/06 08:24:04;;;;;;;8.30;5.13;;;19.70;99.90;;;;;;5069401;28;20051;-70
2023/08/06 08:26:30;;;;;;;6.85;3.75;;;19.80;99.90;;;;;;5068551;28;20059;-69
2023/08/06 08:28:56;;;;;;;8.63;4.07;;;19.90;99.90;;;;;;5069505;28;20041;-71
2023/08/06 08:31:22;;;;;;;7.50;4.35;;;20.00;99.90;;;;;;5069676;28;20040;-70
2023/08/06 08:33:47;;;;;;;6.00;4.28;;;20.10;99.90;;;;;;5069653;28;20036;-69
2023/08/06 08:36:13;;;;;;;5.15;3.58;;;20.30;99.90;;;;;;5069670;28;20045;-70
2023/08/06 08:38:39;;;;;;;6.78;3.58;;;20.40;99.90;;;;;;5069394;28;20491;-69
2023/08/06 08:41:05;;;;;;;6.95;3.50;;;20.60;99.90;;;;;;5068476;28;20037;-71
2023/08/06 08:43:31;;;;;;;8.05;3.08;;;20.70;99.90;;;;;;5071671;28;20065;-69
2023/08/06 08:46:00;;;;;;;3.85;2.92;;;20.80;99.90;;;;;;5073267;28;20032;-72
2023/08/06 08:48:27;;;;;;;4.15;2.72;;;20.90;99.90;;;;;;5073351;28;20047;-71
2023/08/06 08:50:53;;;;;;;4.65;2.20;;;21.10;99.90;;;;;;5065105;28;20047;-70
2023/08/06 08:53:22;;;;;;;5.95;2.40;;;21.20;99.90;;;;;;5072850;28;20040;-70
2023/08/06 08:55:49;;;;;;;3.47;1.98;;;21.30;99.90;;;;;;5073360;28;20047;-73
2023/08/06 08:58:15;;;;;;;3.47;1.77;;;21.30;99.90;;;;;;5073346;28;20040;-69
2023/08/06 09:00:48;;;;;;;2.90;1.98;;;21.30;99.90;;;;;;5072754;28;20067;-72
2023/08/06 09:03:14;;;;;;;4.38;1.85;;;21.50;99.90;;;;;;5073058;28;20133;-71
2023/08/06 09:05:48;;;;;;;3.15;1.77;;;21.60;99.90;;;;;;5072793;28;20090;-69
2023/08/06 09:08:19;;;;;;;4.22;2.20;;;21.60;99.90;;;;;;5066114;28;20047;-72
2023/08/06 09:10:46;;;;;;;5.10;2.28;;;21.90;99.90;;;;;;5072965;28;20178;-71
2023/08/06 09:13:12;;;;;;;4.05;1.75;;;21.90;99.90;;;;;;5072523;28;20399;-70
2023/08/06 09:15:38;;;;;;;2.47;1.48;;;21.80;99.90;;;;;;5072462;28;20044;-70
2023/08/06 09:18:10;;;;;;;3.42;1.92;;;21.90;99.90;;;;;;5072910;28;20399;-70
2023/08/06 09:20:38;;;;;;;3.58;1.58;;;22.00;99.90;;;;;;5072289;28;20040;-72
2023/08/06 09:23:09;;;;;;;3.78;1.58;;;22.10;99.90;;;;;;5072794;28;20118;-72
2023/08/06 09:25:39;;;;;;;1.77;1.17;;;21.90;99.90;;;;;;5055093;28;20052;-71
2023/08/06 09:28:05;;;;;;;5.65;1.20;;;22.00;99.90;;;;;;5072338;28;20125;-69
2023/08/06 09:30:33;;;;;;;3.58;1.48;;;22.00;99.90;;;;;;5072449;28;20082;-73
2023/08/06 09:32:59;;;;;;;3.05;1.40;;;22.00;99.90;;;;;;5071887;28;20056;-72
2023/08/06 09:35:25;;;;;;;3.58;1.50;;;22.10;99.90;;;;;;5071749;28;20046;-72
2023/08/06 09:37:50;;;;;;;6.65;1.27;;;22.10;99.90;;;;;;5072624;28;20052;-72
2023/08/06 09:40:30;;;;;;;2.75;1.10;;;22.10;99.90;;;;;;5072187;28;20063;-70
2023/08/06 09:42:56;;;;;;;4.68;1.20;;;22.00;99.90;;;;;;5065232;28;20044;-70
2023/08/06 09:45:23;;;;;;;2.22;1.20;;;22.00;99.90;;;;;;5072237;28;20033;-73
2023/08/06 09:47:55;;;;;;;2.47;1.13;;;22.00;99.90;;;;;;5072054;28;20039;-71
2023/08/06 09:50:21;;;;;;;3.33;1.30;;;22.10;99.90;;;;;;5072405;28;20048;-71
2023/08/06 09:52:50;;;;;;;4.47;1.48;;;22.20;99.90;;;;;;5072226;28;20041;-70
2023/08/06 09:55:16;;;;;;;3.30;1.40;;;22.20;99.90;;;;;;5071002;28;20050;-74
2023/08/06 09:57:42;;;;;;;4.80;1.45;;;22.20;99.90;;;;;;5071781;28;20048;-70
2023/08/06 10:00:10;;;;;;;2.50;1.17;;;22.40;99.90;;;;;;5071946;28;20056;-71
2023/08/06 10:02:38;;;;;;;2.95;1.20;;;22.50;99.90;;;;;;5072009;28;20554;-73
2023/08/06 10:05:05;;;;;;;3.22;1.70;;;22.70;99.90;;;;;;5071822;28;20055;-74
2023/08/06 10:07:31;;;;;;;4.95;1.80;;;22.70;99.90;;;;;;5071446;28;20484;-70
2023/08/06 10:09:56;;;;;;;2.28;1.27;;;22.70;99.90;;;;;;5071953;28;20182;-71
2023/08/06 10:12:27;;;;;;;2.08;1.38;;;22.90;99.90;;;;;;5071707;28;20508;-71
2023/08/06 10:14:55;;;;;;;5.78;1.63;;;22.90;99.90;;;;;;5071605;28;20502;-71
2023/08/06 10:17:23;;;;;;;3.28;1.60;;;22.90;99.90;;;;;;5063516;28;20052;-70
2023/08/06 10:19:50;;;;;;;3.00;1.70;;;23.00;99.90;;;;;;5071796;28;20403;-71
2023/08/06 10:22:17;;;;;;;4.53;1.70;;;23.10;99.90;;;;;;5071135;28;20048;-71
2023/08/06 10:25:04;;;;;;;1.80;1.13;;;23.20;99.90;;;;;;5071423;28;20406;-70
2023/08/06 10:27:34;;;;;;;4.10;1.50;;;23.20;99.90;;;;;;5063071;28;20059;-72
2023/08/06 10:30:29;;;;;;;3.35;1.30;;;23.20;99.90;;;;;;5071097;28;20044;-70
2023/08/06 10:33:02;;;;;;;3.38;1.27;;;23.30;99.90;;;;;;5063985;28;20132;-69
2023/08/06 10:35:40;;;;;;;5.10;1.50;;;23.20;99.90;;;;;;5070601;28;20119;-71
2023/08/06 10:38:15;;;;;;;3.08;1.25;;;23.20;99.90;;;;;;5070864;28;20036;-70
2023/08/06 10:40:54;;;;;;;2.90;1.08;;;23.30;99.90;;;;;;5062789;28;20056;-68
2023/08/06 10:43:31;;;;;;;3.83;1.20;;;23.30;99.90;;;;;;5071291;28;20036;-71
2023/08/06 10:45:59;;;;;;;2.30;1.13;;;23.30;99.90;;;;;;5064045;28;20041;-74
2023/08/06 10:48:30;;;;;;;2.92;1.10;;;23.20;99.90;;;;;;5070657;28;20048;-70
2023/08/06 10:50:56;;;;;;;3.83;1.60;;;23.30;99.90;;;;;;5062487;28;20119;-71
2023/08/06 10:53:22;;;;;;;6.00;1.30;;;23.40;99.90;;;;;;5070677;28;20044;-69
2023/08/06 10:55:48;;;;;;;3.05;1.42;;;23.30;99.90;;;;;;5070591;28;20118;-72
2023/08/06 10:58:16;;;;;;;3.75;1.35;;;23.50;99.90;;;;;;5069323;28;20046;-74
2023/08/06 11:00:42;;;;;;;3.70;1.17;;;23.40;99.90;;;;;;5070117;28;20088;-71
2023/08/06 11:03:08;;;;;;;2.42;1.48;;;23.30;99.90;;;;;;5070650;28;20547;-71
2023/08/06 11:05:35;;;;;;;4.68;1.38;;;23.30;99.90;;;;;;5071126;28;20043;-70
2023/08/06 11:08:01;;;;;;;3.65;1.45;;;23.50;99.90;;;;;;5068580;28;20091;-71
2023/08/06 11:10:27;;;;;;;2.55;1.33;;;23.70;99.90;;;;;;5070645;28;20443;-69
2023/08/06 11:12:53;;;;;;;4.78;1.48;;;23.70;99.90;;;;;;5070538;28;20048;-74
2023/08/06 11:15:20;;;;;;;2.97;1.35;;;23.90;99.90;;;;;;5068970;28;20049;-71
2023/08/06 11:17:47;;;;;;;3.35;1.20;;;24.10;99.90;;;;;;5070536;28;20087;-73
2023/08/06 11:20:13;;;;;;;2.72;1.30;;;24.00;99.90;;;;;;5070450;28;20530;-70
2023/08/06 11:22:39;;;;;;;4.07;1.10;;;24.10;99.90;;;;;;5069017;28;20131;-74
2023/08/06 11:25:06;;;;;;;2.55;1.20;;;24.30;99.90;;;;;;5070002;28;20419;-78
2023/08/06 11:27:32;;;;;;;4.13;1.33;;;24.40;99.90;;;;;;5069656;28;20040;-71
2023/08/06 11:29:58;;;;;;;3.20;1.23;;;24.50;99.90;;;;;;5068136;28;20058;-77
2023/08/06 11:32:23;;;;;;;2.50;1.30;;;24.50;99.90;;;;;;5070130;28;20119;-73
2023/08/06 11:34:49;;;;;;;3.00;1.23;;;24.50;99.90;;;;;;5069733;28;20122;-76
2023/08/06 11:37:14;;;;;;;3.92;1.20;;;24.60;99.90;;;;;;5069816;28;20049;-69
2023/08/06 11:39:48;;;;;;;2.50;1.23;;;24.60;99.90;;;;;;5069760;28;20044;-75
2023/08/06 11:42:13;;;;;;;6.30;1.58;;;24.90;99.90;;;;;;5070038;28;20090;-71
2023/08/06 11:44:44;;;;;;;3.92;1.38;;;24.90;99.90;;;;;;5069823;28;20048;-69
2023/08/06 11:47:14;;;;;;;2.30;1.02;;;25.00;99.90;;;;;;5070172;28;20080;-70
2023/08/06 11:49:46;;;;;;;2.95;1.30;;;25.10;99.90;;;;;;5069798;28;20087;-72
2023/08/06 11:52:24;;;;;;;3.97;1.30;;;25.10;99.90;;;;;;5069930;28;20048;-67
2023/08/06 11:55:07;;;;;;;2.60;1.30;;;25.00;99.90;;;;;;5069516;28;20064;-70
2023/08/06 11:57:36;;;;;;;2.88;1.40;;;24.90;99.90;;;;;;5069828;28;20051;-71
2023/08/06 12:00:09;;;;;;;6.28;1.40;;;24.90;99.90;;;;;;5061775;28;20060;-69
2023/08/06 12:02:37;;;;;;;3.75;1.30;;;24.90;99.90;;;;;;5069285;28;20052;-71
2023/08/06 12:05:11;;;;;;;4.50;1.30;;;25.00;99.90;;;;;;5069706;28;20048;-70
2023/08/06 12:07:41;;;;;;;2.90;1.30;;;24.70;99.90;;;;;;5069687;28;20047;-71
2023/08/06 12:10:07;;;;;;;2.95;1.20;;;24.60;99.90;;;;;;5067752;28;20052;-72
2023/08/06 12:12:34;;;;;;;3.28;1.17;;;24.50;99.90;;;;;;5069608;28;20036;-72
2023/08/06 12:15:01;;;;;;;2.20;1.10;;;24.40;99.90;;;;;;5069334;28;20091;-73
2023/08/06 12:17:26;;;;;;;3.00;1.08;;;24.30;99.90;;;;;;5068806;28;20051;-68
2023/08/06 12:19:52;;;;;;;2.95;1.00;;;24.30;99.90;;;;;;5069847;28;20032;-68
2023/08/06 12:22:18;;;;;;;4.13;1.52;;;24.30;99.90;;;;;;5069249;28;20449;-70
2023/08/06 12:24:45;;;;;;;2.42;1.20;;;24.30;99.90;;;;;;5068133;28;20082;-70
2023/08/06 12:27:11;;;;;;;2.92;1.30;;;24.30;99.90;;;;;;5069341;28;20033;-70
2023/08/06 12:29:48;;;;;;;3.90;1.80;;;24.40;99.90;;;;;;5069529;28;20041;-71
2023/08/06 12:32:14;;;;;;;4.30;1.40;;;24.20;99.90;;;;;;5069672;28;20043;-69
2023/08/06 12:34:43;;;;;;;4.25;1.42;;;24.20;99.90;;;;;;5069437;28;20052;-68
2023/08/06 12:37:09;;;;;;;4.53;1.23;;;23.90;99.90;;;;;;5069435;28;20460;-70